createdAt,value
2023-02-05T00:00:49.694Z,-0.88
2023-02-05T00:01:46.509Z,-1.13
2023-02-05T00:02:43.392Z,-0.62
2023-02-05T00:03:40.809Z,-1.72
2023-02-05T00:04:38.254Z,-0.70
2023-02-05T00:05:35.475Z,-0.69
2023-02-05T00:06:32.589Z,-0.84
2023-02-05T00:07:29.365Z,-0.98
2023-02-05T00:08:27.612Z,-1.42
2023-02-05T00:09:24.403Z,-1.34
2023-02-05T00:10:21.153Z,-0.57
2023-02-05T00:11:18.068Z,-0.54
2023-02-05T00:12:15.156Z,-1.41
2023-02-05T00:13:12.041Z,-0.68
2023-02-05T00:14:08.847Z,-0.77
2023-02-05T00:15:06.388Z,-0.64
2023-02-05T00:16:10.864Z,-0.73
2023-02-05T00:17:07.736Z,-1.08
2023-02-05T00:18:04.630Z,-1.27
2023-02-05T00:19:01.510Z,-1.26
2023-02-05T00:19:58.241Z,-1.24
2023-02-05T00:20:55.007Z,-2.90
2023-02-05T00:21:51.768Z,-1.69
2023-02-05T00:22:48.610Z,-1.08
2023-02-05T00:23:45.839Z,-3.92
2023-02-05T00:24:42.672Z,-1.75
2023-02-05T00:25:39.445Z,-1.08
2023-02-05T00:26:36.398Z,-0.79
2023-02-05T00:27:34.038Z,-0.64
2023-02-05T00:28:36.172Z,-0.60
2023-02-05T00:29:33.082Z,-1.76
2023-02-05T00:30:29.902Z,-2.97
2023-02-05T00:31:26.936Z,-1.10
2023-02-05T00:32:23.905Z,-1.23
2023-02-05T00:33:22.025Z,-1.21
2023-02-05T00:34:19.497Z,-2.10
2023-02-05T00:35:16.434Z,-2.67
2023-02-05T00:36:14.008Z,-1.26
2023-02-05T00:37:11.360Z,-1.92
2023-02-05T00:38:08.103Z,-1.80
2023-02-05T00:39:04.996Z,-0.58
2023-02-05T00:40:01.872Z,-0.68
2023-02-05T00:40:58.865Z,-1.48
2023-02-05T00:41:55.626Z,-1.61
2023-02-05T00:42:52.430Z,-0.94
2023-02-05T00:43:49.246Z,-1.79
2023-02-05T00:44:46.059Z,-1.07
2023-02-05T00:45:42.923Z,-1.88
2023-02-05T00:46:39.760Z,-1.32
2023-02-05T00:47:36.574Z,-1.41
2023-02-05T00:48:33.847Z,-0.99
2023-02-05T00:49:30.683Z,-2.16
2023-02-05T00:50:27.579Z,-0.83
2023-02-05T00:51:24.472Z,-1.55
2023-02-05T00:52:21.406Z,-1.78
2023-02-05T00:53:19.682Z,-0.95
2023-02-05T00:54:16.526Z,-1.05
2023-02-05T00:55:15.888Z,-1.16
2023-02-05T00:56:12.889Z,-0.89
2023-02-05T00:57:09.924Z,-0.90
2023-02-05T00:58:06.949Z,-0.73
2023-02-05T00:59:04.206Z,-2.24
2023-02-05T01:00:01.240Z,-0.87
2023-02-05T01:00:58.290Z,-2.57
2023-02-05T01:01:55.145Z,-1.81
2023-02-05T01:02:51.954Z,-0.58
2023-02-05T01:03:48.804Z,-0.98
2023-02-05T01:04:45.586Z,-0.78
2023-02-05T01:05:43.694Z,-0.86
2023-02-05T01:06:40.586Z,-0.70
2023-02-05T01:07:37.373Z,-1.24
2023-02-05T01:08:34.610Z,-0.69
2023-02-05T01:09:31.430Z,-3.23
2023-02-05T01:10:28.520Z,-0.98
2023-02-05T01:11:25.563Z,-0.88
2023-02-05T01:12:22.334Z,-2.05
2023-02-05T01:13:19.454Z,-1.01
2023-02-05T01:14:16.342Z,-0.84
2023-02-05T01:15:14.322Z,-1.74
2023-02-05T01:16:11.143Z,-1.76
2023-02-05T01:17:08.089Z,-1.43
2023-02-05T01:18:04.920Z,-3.22
2023-02-05T01:19:01.929Z,-2.60
2023-02-05T01:19:58.680Z,-1.51
2023-02-05T01:20:55.664Z,-2.29
2023-02-05T01:21:52.462Z,-1.74
2023-02-05T01:22:49.608Z,-1.39
2023-02-05T01:23:46.399Z,-1.47
2023-02-05T01:24:43.146Z,-1.37
2023-02-05T01:25:40.100Z,-2.08
2023-02-05T01:26:36.924Z,-2.20
2023-02-05T01:27:34.987Z,-1.43
2023-02-05T01:28:32.077Z,-2.21
2023-02-05T01:29:29.457Z,-2.12
2023-02-05T01:30:26.331Z,-3.03
2023-02-05T01:31:23.885Z,-0.88
2023-02-05T01:32:21.003Z,-1.05
2023-02-05T01:33:18.430Z,-1.58
2023-02-05T01:34:15.196Z,-1.30
2023-02-05T01:36:26.384Z,-1.18
2023-02-05T01:37:23.479Z,-1.21
2023-02-05T01:38:20.302Z,-0.84
2023-02-05T01:39:17.201Z,-0.42
2023-02-05T01:40:15.705Z,-0.98
2023-02-05T01:41:13.753Z,-2.92
2023-02-05T01:42:21.583Z,-0.96
2023-02-05T01:43:19.002Z,-1.84
2023-02-05T01:44:18.813Z,-1.22
2023-02-05T01:45:29.666Z,-1.04
2023-02-05T01:46:31.247Z,-1.75
2023-02-05T01:47:27.985Z,-1.44
2023-02-05T01:48:29.329Z,-1.08
2023-02-05T01:49:43.895Z,-1.60
2023-02-05T01:50:47.655Z,-1.91
2023-02-05T01:51:47.930Z,-1.01
2023-02-05T01:52:46.069Z,-2.28
2023-02-05T01:53:45.863Z,-1.52
2023-02-05T01:54:48.924Z,-1.15
2023-02-05T01:55:55.242Z,-2.12
2023-02-05T01:57:00.290Z,-1.22
2023-02-05T01:58:00.464Z,-1.16
2023-02-05T01:59:04.031Z,-1.64
2023-02-05T02:00:00.980Z,-2.79
2023-02-05T02:00:58.560Z,-2.05
2023-02-05T02:01:56.230Z,-3.64
2023-02-05T02:02:53.917Z,-1.77
2023-02-05T02:03:53.906Z,-2.47
2023-02-05T02:04:57.909Z,-1.79
2023-02-05T02:05:58.052Z,-1.25
2023-02-05T02:06:54.784Z,-1.00
2023-02-05T02:07:51.625Z,-2.74
2023-02-05T02:08:48.447Z,-1.28
2023-02-05T02:09:48.447Z,-2.21
2023-02-05T02:10:48.539Z,-1.50
2023-02-05T02:11:45.638Z,-1.00
2023-02-05T02:12:46.631Z,-1.41
2023-02-05T02:13:47.890Z,-0.93
2023-02-05T02:14:51.360Z,-0.60
2023-02-05T02:15:50.770Z,-2.45
2023-02-05T02:16:47.905Z,-1.50
2023-02-05T02:17:50.445Z,-2.69
2023-02-05T02:18:47.837Z,-1.34
2023-02-05T02:20:06.967Z,-0.78
2023-02-05T02:21:19.762Z,-0.56
2023-02-05T02:22:28.966Z,-0.84
2023-02-05T02:23:47.529Z,-2.41
2023-02-05T02:25:03.028Z,-0.94
2023-02-05T02:26:32.095Z,-0.92
2023-02-05T02:28:01.095Z,-1.13
2023-02-05T02:29:04.126Z,-1.34
2023-02-05T02:30:20.506Z,-0.82
2023-02-05T02:31:23.827Z,-1.39
2023-02-05T02:32:41.509Z,-1.21
2023-02-05T02:33:54.318Z,-0.91
2023-02-05T02:35:01.084Z,-1.15
2023-02-05T02:36:12.351Z,-1.43
2023-02-05T02:37:25.738Z,-1.94
2023-02-05T02:38:29.270Z,-1.94
2023-02-05T02:39:36.957Z,-3.49
2023-02-05T02:41:04.241Z,-1.87
2023-02-05T02:42:14.950Z,-1.32
2023-02-05T02:43:21.475Z,-1.77
2023-02-05T02:44:42.794Z,-1.22
2023-02-05T02:45:53.168Z,-3.25
2023-02-05T02:46:58.102Z,-1.63
2023-02-05T02:48:00.469Z,-2.31
2023-02-05T02:49:03.908Z,-1.74
2023-02-05T02:50:06.723Z,-1.59
2023-02-05T02:51:09.339Z,-1.33
2023-02-05T02:52:11.156Z,-3.01
2023-02-05T02:53:35.029Z,-1.36
2023-02-05T02:54:35.923Z,-1.68
2023-02-05T02:55:39.413Z,-1.45
2023-02-05T02:56:40.056Z,-0.95
2023-02-05T02:57:43.429Z,-2.33
2023-02-05T02:58:51.633Z,-1.22
2023-02-05T02:59:53.140Z,-1.10
2023-02-05T03:00:54.298Z,-1.01
2023-02-05T03:01:57.508Z,-2.08
2023-02-05T03:03:03.485Z,-1.20
2023-02-05T03:04:12.367Z,-1.78
2023-02-05T03:05:16.370Z,-2.15
2023-02-05T03:06:17.106Z,-1.60
2023-02-05T03:07:23.761Z,-2.08
2023-02-05T03:08:31.078Z,-2.45
2023-02-05T03:09:37.168Z,-1.72
2023-02-05T03:10:46.784Z,-1.93
2023-02-05T03:11:43.777Z,-1.78
2023-02-05T03:12:40.610Z,-2.05
2023-02-05T03:13:37.717Z,-2.33
2023-02-05T03:14:36.360Z,-3.56
2023-02-05T03:15:33.536Z,-2.98
2023-02-05T03:16:31.257Z,-3.49
2023-02-05T03:17:30.220Z,-1.96
2023-02-05T03:18:27.195Z,-2.46
2023-02-05T03:19:24.323Z,-2.43
2023-02-05T03:20:24.552Z,-2.16
2023-02-05T03:21:43.480Z,-1.94
2023-02-05T03:22:40.334Z,-2.06
2023-02-05T03:23:37.256Z,-4.54
2023-02-05T03:24:34.196Z,-2.47
2023-02-05T03:25:31.019Z,-1.66
2023-02-05T03:26:36.713Z,-1.94
2023-02-05T03:27:34.338Z,-2.45
2023-02-05T03:28:31.874Z,-2.25
2023-02-05T03:29:33.812Z,-1.66
2023-02-05T03:30:43.987Z,-2.61
2023-02-05T03:32:15.187Z,-1.55
2023-02-05T03:33:21.060Z,-1.80
2023-02-05T03:34:41.525Z,-1.69
2023-02-05T03:35:56.063Z,-2.45
2023-02-05T03:37:01.709Z,-1.88
2023-02-05T03:38:08.960Z,-2.18
2023-02-05T03:39:29.218Z,-3.31
2023-02-05T03:40:37.969Z,-2.20
2023-02-05T03:41:55.781Z,-2.17
2023-02-05T03:43:07.455Z,-4.12
2023-02-05T03:44:38.634Z,-1.92
2023-02-05T03:45:52.906Z,-1.76
2023-02-05T03:47:25.133Z,-2.27
2023-02-05T03:48:39.085Z,-2.15
2023-02-05T03:49:43.866Z,-3.03
2023-02-05T03:51:11.803Z,-2.11
2023-02-05T03:52:18.776Z,-2.87
2023-02-05T03:53:30.668Z,-2.37
2023-02-05T03:55:02.448Z,-2.19
2023-02-05T03:56:13.689Z,-2.78
2023-02-05T03:57:45.093Z,-1.96
2023-02-05T03:58:47.839Z,-3.40
2023-02-05T03:59:47.302Z,-2.48
2023-02-05T04:00:45.401Z,-2.21
2023-02-05T04:01:44.817Z,-2.95
2023-02-05T04:02:43.466Z,-2.40
2023-02-05T04:03:40.687Z,-2.73
2023-02-05T04:04:37.612Z,-2.46
2023-02-05T04:05:34.734Z,-2.40
2023-02-05T04:06:31.687Z,-2.43
2023-02-05T04:07:28.605Z,-2.58
2023-02-05T04:08:25.564Z,-2.90
2023-02-05T04:09:22.373Z,-2.56
2023-02-05T04:10:19.959Z,-3.04
2023-02-05T04:11:16.748Z,-2.57
2023-02-05T04:12:13.626Z,-3.46
2023-02-05T04:13:11.525Z,-2.84
2023-02-05T04:14:09.143Z,-3.44
2023-02-05T04:15:09.028Z,-2.07
2023-02-05T04:16:05.868Z,-1.86
2023-02-05T04:17:03.179Z,-2.49
2023-02-05T04:18:00.035Z,-2.34
2023-02-05T04:18:56.843Z,-2.25
2023-02-05T04:19:53.697Z,-2.35
2023-02-05T04:20:50.525Z,-2.32
2023-02-05T04:21:47.276Z,-2.23
2023-02-05T04:22:44.041Z,-2.30
2023-02-05T04:23:40.883Z,-2.32
2023-02-05T04:24:37.676Z,-2.13
2023-02-05T04:25:37.110Z,-2.24
2023-02-05T04:26:34.117Z,-2.51
2023-02-05T04:27:30.865Z,-2.87
2023-02-05T04:28:27.743Z,-3.39
2023-02-05T04:29:24.663Z,-2.54
2023-02-05T04:30:21.491Z,-3.00
2023-02-05T04:31:18.292Z,-2.88
2023-02-05T04:32:15.402Z,-2.88
2023-02-05T04:33:12.188Z,-1.88
2023-02-05T04:34:08.996Z,-1.99
2023-02-05T04:35:07.786Z,-2.11
2023-02-05T04:36:05.034Z,-3.06
2023-02-05T04:37:02.371Z,-2.10
2023-02-05T04:37:59.205Z,-2.24
2023-02-05T04:38:55.975Z,-2.82
2023-02-05T04:39:52.757Z,-2.66
2023-02-05T04:40:49.552Z,-2.67
2023-02-05T04:41:46.334Z,-2.15
2023-02-05T04:42:43.309Z,-3.55
2023-02-05T04:43:40.091Z,-2.94
2023-02-05T04:44:36.875Z,-2.54
2023-02-05T04:45:34.014Z,-2.35
2023-02-05T04:46:31.040Z,-2.58
2023-02-05T04:47:27.858Z,-2.25
2023-02-05T04:48:24.699Z,-2.58
2023-02-05T04:49:21.420Z,-3.01
2023-02-05T04:50:18.461Z,-2.57
2023-02-05T04:51:16.236Z,-2.89
2023-02-05T04:52:13.083Z,-2.29
2023-02-05T04:53:10.075Z,-2.22
2023-02-05T04:54:06.885Z,-1.83
2023-02-05T04:55:03.769Z,-2.20
2023-02-05T04:56:07.157Z,-2.25
2023-02-05T04:57:04.122Z,-2.61
2023-02-05T04:58:01.111Z,-2.28
2023-02-05T04:58:57.931Z,-2.52
2023-02-05T04:59:54.655Z,-2.55
2023-02-05T05:00:51.517Z,-2.34
2023-02-05T05:01:48.404Z,-3.06
2023-02-05T05:02:45.211Z,-2.32
2023-02-05T05:03:42.906Z,-3.67
2023-02-05T05:04:41.142Z,-2.77
2023-02-05T05:05:39.753Z,-2.56
2023-02-05T05:06:36.774Z,-2.71
2023-02-05T05:07:33.589Z,-2.70
2023-02-05T05:08:30.336Z,-3.00
2023-02-05T05:09:27.536Z,-1.98
2023-02-05T05:10:24.336Z,-2.32
2023-02-05T05:11:21.082Z,-2.66
2023-02-05T05:12:17.904Z,-3.68
2023-02-05T05:13:14.631Z,-2.41
2023-02-05T05:14:11.580Z,-2.63
2023-02-05T05:15:08.892Z,-2.15
2023-02-05T05:16:06.597Z,-2.67
2023-02-05T05:17:04.419Z,-2.46
2023-02-05T05:18:01.227Z,-2.56
2023-02-05T05:18:58.121Z,-2.67
2023-02-05T05:19:55.177Z,-2.13
2023-02-05T05:20:51.999Z,-2.16
2023-02-05T05:21:48.756Z,-2.13
2023-02-05T05:22:45.614Z,-2.20
2023-02-05T05:23:42.418Z,-2.41
2023-02-05T05:24:39.145Z,-2.44
2023-02-05T05:25:42.182Z,-3.00
2023-02-05T05:26:43.780Z,-2.19
2023-02-05T05:27:40.678Z,-2.46
2023-02-05T05:28:38.543Z,-2.20
2023-02-05T05:29:38.426Z,-2.36
2023-02-05T05:30:38.197Z,-3.09
2023-02-05T05:31:34.991Z,-2.41
2023-02-05T05:32:34.494Z,-3.77
2023-02-05T05:33:31.264Z,-3.84
2023-02-05T05:34:28.144Z,-3.18
2023-02-05T05:35:24.977Z,-2.18
2023-02-05T05:36:21.799Z,-1.99
2023-02-05T05:37:18.610Z,-2.03
2023-02-05T05:38:15.461Z,-3.13
2023-02-05T05:39:31.063Z,-2.25
2023-02-05T05:40:47.513Z,-2.78
2023-02-05T05:42:02.995Z,-2.77
2023-02-05T05:43:18.284Z,-3.04
2023-02-05T05:44:15.047Z,-2.76
2023-02-05T05:45:18.084Z,-3.08
2023-02-05T05:46:40.733Z,-2.35
2023-02-05T05:47:37.534Z,-2.98
2023-02-05T05:48:36.948Z,-2.74
2023-02-05T05:49:33.743Z,-3.96
2023-02-05T05:50:30.591Z,-2.77
2023-02-05T05:51:29.718Z,-2.00
2023-02-05T05:52:26.602Z,-2.03
2023-02-05T05:53:23.806Z,-2.31
2023-02-05T05:54:20.610Z,-1.99
2023-02-05T05:55:17.538Z,-2.08
2023-02-05T05:56:14.580Z,-2.15
2023-02-05T05:57:11.366Z,-2.06
2023-02-05T05:58:08.977Z,-2.87
2023-02-05T05:59:05.788Z,-1.96
2023-02-05T06:00:03.081Z,-2.51
2023-02-05T06:01:00.203Z,-3.21
2023-02-05T06:01:57.069Z,-4.02
2023-02-05T06:02:53.899Z,-2.20
2023-02-05T06:03:51.976Z,-1.88
2023-02-05T06:04:49.098Z,-2.25
2023-02-05T06:05:46.012Z,-1.84
2023-02-05T06:06:42.864Z,-1.78
2023-02-05T06:07:39.772Z,-2.62
2023-02-05T06:08:36.579Z,-2.54
2023-02-05T06:09:33.380Z,-2.21
2023-02-05T06:10:30.496Z,-2.66
2023-02-05T06:11:27.428Z,-2.29
2023-02-05T06:12:24.219Z,-3.59
2023-02-05T06:13:21.001Z,-2.24
2023-02-05T06:14:17.761Z,-2.62
2023-02-05T06:15:14.614Z,-1.62
2023-02-05T06:16:11.507Z,-1.53
2023-02-05T06:17:08.426Z,-2.61
2023-02-05T06:18:05.302Z,-2.85
2023-02-05T06:19:02.122Z,-2.62
2023-02-05T06:19:58.860Z,-2.47
2023-02-05T06:20:55.746Z,-2.79
2023-02-05T06:21:52.592Z,-2.23
2023-02-05T06:22:49.375Z,-2.25
2023-02-05T06:23:46.263Z,-1.98
2023-02-05T06:24:43.057Z,-1.53
2023-02-05T06:25:40.200Z,-1.94
2023-02-05T06:26:37.196Z,-2.37
2023-02-05T06:27:34.336Z,-1.43
2023-02-05T06:28:31.135Z,-1.48
2023-02-05T06:29:27.914Z,-1.68
2023-02-05T06:30:24.958Z,-2.42
2023-02-05T06:31:21.964Z,-2.19
2023-02-05T06:32:18.825Z,-2.08
2023-02-05T06:33:15.751Z,-3.19
2023-02-05T06:34:12.531Z,-2.58
2023-02-05T06:35:09.337Z,-2.06
2023-02-05T06:36:06.775Z,-2.14
2023-02-05T06:37:03.558Z,-2.36
2023-02-05T06:38:00.398Z,-2.03
2023-02-05T06:38:57.262Z,-2.87
2023-02-05T06:39:54.140Z,-2.26
2023-02-05T06:40:50.946Z,-1.81
2023-02-05T06:41:47.701Z,-1.87
2023-02-05T06:42:45.566Z,-1.74
2023-02-05T06:43:42.378Z,-1.65
2023-02-05T06:44:39.233Z,-1.54
2023-02-05T06:45:38.894Z,-1.48
2023-02-05T06:46:36.911Z,-1.50
2023-02-05T06:47:33.798Z,-1.95
2023-02-05T06:48:30.645Z,-2.16
2023-02-05T06:49:27.501Z,-3.44
2023-02-05T06:50:24.738Z,-2.41
2023-02-05T06:51:21.529Z,-1.98
2023-02-05T06:52:18.387Z,-1.94
2023-02-05T06:53:15.175Z,-3.22
2023-02-05T06:54:12.006Z,-2.52
2023-02-05T06:55:09.157Z,-1.96
2023-02-05T06:56:06.181Z,-2.03
2023-02-05T06:57:03.044Z,-2.55
2023-02-05T06:57:59.832Z,-2.91
2023-02-05T06:58:56.582Z,-2.28
2023-02-05T06:59:53.361Z,-2.14
2023-02-05T07:00:50.139Z,-2.54
2023-02-05T07:01:46.860Z,-1.91
2023-02-05T07:02:46.229Z,-2.68
2023-02-05T07:03:43.195Z,-2.99
2023-02-05T07:04:42.836Z,-2.87
2023-02-05T07:05:42.638Z,-2.37
2023-02-05T07:06:39.333Z,-2.90
2023-02-05T07:07:41.547Z,-2.36
2023-02-05T07:08:38.328Z,-1.63
2023-02-05T07:09:35.302Z,-1.81
2023-02-05T07:10:35.142Z,-1.94
2023-02-05T07:11:34.490Z,-1.61
2023-02-05T07:12:31.311Z,-2.38
2023-02-05T07:13:31.097Z,-1.87
2023-02-05T07:14:45.516Z,-1.50
2023-02-05T07:15:42.486Z,-2.15
2023-02-05T07:16:42.418Z,-2.95
2023-02-05T07:17:39.559Z,-1.65
2023-02-05T07:18:36.352Z,-2.43
2023-02-05T07:19:37.079Z,-2.87
2023-02-05T07:20:34.249Z,-3.16
2023-02-05T07:21:35.211Z,-2.29
2023-02-05T07:22:32.020Z,-3.00
2023-02-05T07:23:28.822Z,-3.18
2023-02-05T07:24:25.951Z,-2.15
2023-02-05T07:25:25.479Z,-1.99
2023-02-05T07:26:25.585Z,-2.95
2023-02-05T07:27:22.440Z,-4.12
2023-02-05T07:28:19.250Z,-2.67
2023-02-05T07:29:16.051Z,-3.12
2023-02-05T07:30:15.947Z,-1.98
2023-02-05T07:31:17.925Z,-2.66
2023-02-05T07:32:14.768Z,-1.40
2023-02-05T07:33:11.557Z,-1.64
2023-02-05T07:34:08.289Z,-2.47
2023-02-05T07:35:08.120Z,-2.80
2023-02-05T07:36:06.879Z,-2.15
2023-02-05T07:37:03.626Z,-1.99
2023-02-05T07:38:03.104Z,-2.78
2023-02-05T07:38:59.896Z,-1.64
2023-02-05T07:39:59.664Z,-3.32
2023-02-05T07:41:03.537Z,-1.68
2023-02-05T07:42:02.266Z,-2.75
2023-02-05T07:42:59.180Z,-5.17
2023-02-05T07:43:55.954Z,-1.63
2023-02-05T07:44:54.636Z,-1.15
2023-02-05T07:46:02.876Z,-2.24
2023-02-05T07:46:59.692Z,-1.55
2023-02-05T07:47:56.554Z,-1.58
2023-02-05T07:48:54.621Z,-1.57
2023-02-05T07:49:54.258Z,-1.96
2023-02-05T07:50:51.101Z,-3.01
2023-02-05T07:51:48.812Z,-2.03
2023-02-05T07:52:45.724Z,-1.43
2023-02-05T07:53:42.494Z,-1.66
2023-02-05T07:54:40.102Z,-1.72
2023-02-05T07:55:42.724Z,-2.11
2023-02-05T07:56:39.508Z,-2.52
2023-02-05T07:57:36.355Z,-1.45
2023-02-05T07:58:33.162Z,-1.86
2023-02-05T07:59:30.167Z,-1.46
2023-02-05T08:00:27.014Z,-1.73
2023-02-05T08:01:23.886Z,-1.72
2023-02-05T08:02:20.693Z,-1.88
2023-02-05T08:03:17.586Z,-1.58
2023-02-05T08:04:14.459Z,-1.17
2023-02-05T08:05:11.351Z,-1.55
2023-02-05T08:06:11.819Z,-1.27
2023-02-05T08:07:12.608Z,-0.84
2023-02-05T08:08:12.086Z,-1.02
2023-02-05T08:09:09.285Z,-0.79
2023-02-05T08:10:06.561Z,-1.44
2023-02-05T08:11:05.877Z,-1.05
2023-02-05T08:12:02.677Z,-0.72
2023-02-05T08:12:59.555Z,-0.70
2023-02-05T08:13:56.386Z,-1.04
2023-02-05T08:14:53.172Z,-2.17
2023-02-05T08:15:49.941Z,-1.07
2023-02-05T08:16:46.977Z,-1.63
2023-02-05T08:17:43.789Z,-1.27
2023-02-05T08:18:40.609Z,-1.06
2023-02-05T08:19:37.518Z,-1.08
2023-02-05T08:20:34.338Z,-1.92
2023-02-05T08:21:31.156Z,-1.03
2023-02-05T08:22:27.991Z,-1.72
2023-02-05T08:23:25.090Z,-0.93
2023-02-05T08:24:21.862Z,-2.00
2023-02-05T08:25:18.831Z,-0.97
2023-02-05T08:26:15.874Z,-1.60
2023-02-05T08:27:16.960Z,-1.70
2023-02-05T08:28:14.402Z,-0.93
2023-02-05T08:29:11.715Z,-0.92
2023-02-05T08:30:12.626Z,-0.84
2023-02-05T08:31:15.113Z,-0.71
2023-02-05T08:32:11.933Z,-0.36
2023-02-05T08:33:08.731Z,-0.37
2023-02-05T08:34:06.060Z,-1.67
2023-02-05T08:35:02.935Z,-1.14
2023-02-05T08:35:59.816Z,-1.07
2023-02-05T08:36:57.769Z,-1.27
2023-02-05T08:37:54.557Z,-2.01
2023-02-05T08:38:51.391Z,-0.48
2023-02-05T08:39:49.456Z,-1.59
2023-02-05T08:40:46.272Z,-0.80
2023-02-05T08:41:43.126Z,-0.06
2023-02-05T08:42:40.385Z,0.28
2023-02-05T08:43:37.184Z,-1.16
2023-02-05T08:44:34.432Z,-0.77
2023-02-05T08:45:31.784Z,-0.64
2023-02-05T08:46:37.369Z,0.43
2023-02-05T08:47:40.712Z,-0.02
2023-02-05T08:48:37.652Z,0.65
2023-02-05T08:49:34.652Z,0.36
2023-02-05T08:50:32.497Z,0.52
2023-02-05T08:51:29.519Z,-0.18
2023-02-05T08:52:26.353Z,0.27
2023-02-05T08:53:23.263Z,0.59
2023-02-05T08:54:20.583Z,0.90
2023-02-05T08:55:20.366Z,0.81
2023-02-05T08:56:19.964Z,-0.03
2023-02-05T08:57:16.987Z,-0.68
2023-02-05T08:58:13.792Z,-0.45
2023-02-05T08:59:11.930Z,-1.16
2023-02-05T09:00:09.478Z,-0.48
2023-02-05T09:01:11.882Z,-0.63
2023-02-05T09:02:15.743Z,-0.11
2023-02-05T09:03:14.721Z,-0.26
2023-02-05T09:04:15.843Z,-0.10
2023-02-05T09:05:13.921Z,0.12
2023-02-05T09:06:14.072Z,0.03
2023-02-05T09:07:10.910Z,-0.86
2023-02-05T09:08:07.739Z,0.16
2023-02-05T09:09:07.278Z,-0.97
2023-02-05T09:10:04.460Z,0.59
2023-02-05T09:11:01.781Z,0.52
2023-02-05T09:11:58.791Z,0.65
2023-02-05T09:12:55.699Z,0.28
2023-02-05T09:13:53.686Z,0.30
2023-02-05T09:14:50.493Z,-0.44
2023-02-05T09:15:48.817Z,-0.23
2023-02-05T09:16:45.628Z,0.45
2023-02-05T09:17:42.544Z,1.10
2023-02-05T09:18:39.766Z,1.29
2023-02-05T09:19:38.892Z,1.32
2023-02-05T09:20:41.945Z,0.70
2023-02-05T09:21:38.753Z,0.28
2023-02-05T09:22:36.218Z,0.66
2023-02-05T09:23:33.302Z,-0.23
2023-02-05T09:24:30.246Z,-0.14
2023-02-05T09:25:30.144Z,0.19
2023-02-05T09:26:27.154Z,-0.03
2023-02-05T09:27:31.356Z,-0.06
2023-02-05T09:28:28.268Z,-0.48
2023-02-05T09:29:25.288Z,-1.98
2023-02-05T09:30:22.184Z,-1.00
2023-02-05T09:31:23.844Z,0.62
2023-02-05T09:32:20.719Z,-0.73
2023-02-05T09:33:17.830Z,-0.97
2023-02-05T09:34:15.439Z,-0.57
2023-02-05T09:35:12.758Z,0.32
2023-02-05T09:36:36.110Z,0.85
2023-02-05T09:37:33.057Z,0.53
2023-02-05T09:38:29.835Z,0.01
2023-02-05T09:40:11.902Z,0.01
2023-02-05T09:40:59.409Z,-0.57
2023-02-05T09:42:27.998Z,0.27
2023-02-05T09:43:45.912Z,0.63
2023-02-05T09:44:52.823Z,0.21
2023-02-05T09:45:54.482Z,0.77
2023-02-05T09:47:11.036Z,-0.17
2023-02-05T09:48:10.431Z,0.14
2023-02-05T09:49:29.922Z,-0.25
2023-02-05T09:50:43.898Z,0.15
2023-02-05T09:51:48.065Z,0.74
2023-02-05T09:52:51.181Z,-0.58
2023-02-05T09:53:55.153Z,0.07
2023-02-05T09:55:00.625Z,-0.61
2023-02-05T09:56:00.883Z,0.02
2023-02-05T09:57:05.812Z,-0.19
2023-02-05T09:58:16.405Z,-2.10
2023-02-05T09:59:18.317Z,0.51
2023-02-05T10:00:28.666Z,0.54
2023-02-05T10:01:56.037Z,0.18
2023-02-05T10:03:06.209Z,0.48
2023-02-05T10:04:06.213Z,0.02
2023-02-05T10:05:07.816Z,-0.60
2023-02-05T10:06:11.050Z,0.44
2023-02-05T10:07:23.778Z,0.61
2023-02-05T10:09:04.809Z,0.05
2023-02-05T10:10:24.752Z,0.68
2023-02-05T10:11:41.773Z,0.89
2023-02-05T10:13:15.462Z,1.32
2023-02-05T10:14:53.648Z,1.22
2023-02-05T10:16:39.685Z,1.73
2023-02-05T10:18:19.260Z,1.57
2023-02-05T10:19:38.654Z,1.54
2023-02-05T10:21:05.948Z,1.60
2023-02-05T10:22:18.910Z,0.29
2023-02-05T10:23:37.260Z,1.33
2023-02-05T10:24:52.366Z,1.69
2023-02-05T10:25:57.335Z,1.47
2023-02-05T10:27:13.871Z,1.85
2023-02-05T10:28:19.621Z,1.35
2023-02-05T10:29:42.377Z,1.38
2023-02-05T10:31:09.661Z,1.07
2023-02-05T10:32:37.858Z,1.07
2023-02-05T10:33:57.265Z,0.48
2023-02-05T10:35:05.954Z,0.75
2023-02-05T10:36:25.588Z,-1.15
2023-02-05T10:37:38.851Z,0.67
2023-02-05T10:38:54.051Z,1.10
2023-02-05T10:39:50.823Z,-0.18
2023-02-05T10:41:00.408Z,-0.09
2023-02-05T10:42:32.913Z,-1.29
2023-02-05T10:44:00.685Z,1.14
2023-02-05T10:45:20.684Z,1.28
2023-02-05T10:46:18.253Z,0.56
2023-02-05T10:49:23.130Z,0.55
2023-02-05T10:50:29.950Z,1.47
2023-02-05T10:51:40.550Z,0.67
2023-02-05T10:52:39.637Z,1.81
2023-02-05T10:53:41.596Z,1.12
2023-02-05T10:54:42.883Z,0.27
2023-02-05T10:55:42.422Z,0.92
2023-02-05T10:56:42.118Z,1.30
2023-02-05T10:57:41.912Z,1.46
2023-02-05T10:59:10.298Z,1.16
2023-02-05T11:00:30.008Z,1.85
2023-02-05T11:01:34.274Z,1.35
2023-02-05T11:02:46.684Z,1.04
2023-02-05T11:04:07.614Z,1.29
2023-02-05T11:05:26.613Z,0.52
2023-02-05T11:06:34.316Z,-0.03
2023-02-05T11:07:44.919Z,0.51
2023-02-05T11:08:44.264Z,-0.40
2023-02-05T11:09:43.919Z,0.08
2023-02-05T11:10:56.955Z,1.01
2023-02-05T11:12:32.585Z,1.04
2023-02-05T11:13:40.769Z,-0.25
2023-02-05T11:14:41.316Z,0.34
2023-02-05T11:16:13.610Z,0.58
2023-02-05T11:17:32.825Z,0.85
2023-02-05T11:18:40.136Z,-0.22
2023-02-05T11:19:40.144Z,-1.72
2023-02-05T11:20:56.351Z,0.38
2023-02-05T11:22:26.652Z,-0.83
2023-02-05T11:23:28.186Z,0.70
2023-02-05T11:24:33.813Z,0.30
2023-02-05T11:25:48.752Z,-0.54
2023-02-05T11:26:47.851Z,-0.87
2023-02-05T11:28:04.052Z,0.63
2023-02-05T11:29:19.683Z,-0.01
2023-02-05T11:30:52.772Z,0.25
2023-02-05T11:31:44.671Z,-0.60
2023-02-05T11:32:41.649Z,0.24
2023-02-05T11:33:38.499Z,-0.65
2023-02-05T11:34:45.540Z,-0.13
2023-02-05T11:36:17.702Z,-1.49
2023-02-05T11:37:19.949Z,-2.85
2023-02-05T11:38:19.525Z,-0.59
2023-02-05T11:39:39.110Z,-0.54
2023-02-05T11:40:40.254Z,-1.52
2023-02-05T11:41:49.077Z,-0.56
2023-02-05T11:43:06.072Z,-0.63
2023-02-05T11:44:07.521Z,-0.06
2023-02-05T11:45:12.349Z,0.44
2023-02-05T11:46:24.851Z,-2.01
2023-02-05T11:47:49.040Z,0.57
2023-02-05T11:49:00.205Z,0.35
2023-02-05T11:50:03.908Z,-0.93
2023-02-05T11:51:06.660Z,-0.03
2023-02-05T11:52:18.731Z,-0.27
2023-02-05T11:53:20.465Z,-0.66
2023-02-05T11:55:42.535Z,0.16
2023-02-05T11:56:39.371Z,-2.17
2023-02-05T11:57:44.586Z,0.18
2023-02-05T11:58:43.732Z,0.47
2023-02-05T11:59:43.683Z,-3.05
2023-02-05T12:00:57.338Z,0.69
2023-02-05T12:02:30.605Z,0.89
2023-02-05T12:03:32.458Z,-0.60
2023-02-05T12:04:49.897Z,1.01
2023-02-05T12:06:02.025Z,-1.46
2023-02-05T12:07:14.870Z,-2.42
2023-02-05T12:08:39.077Z,-4.06
2023-02-05T12:09:38.998Z,-2.74
2023-02-05T12:10:54.294Z,0.47
2023-02-05T12:12:23.378Z,0.37
2023-02-05T12:14:00.266Z,0.74
2023-02-05T12:15:21.764Z,0.41
2023-02-05T12:17:02.495Z,0.66
2023-02-05T12:18:18.034Z,0.46
2023-02-05T12:19:46.641Z,1.16
2023-02-05T12:21:09.186Z,1.56
2023-02-05T12:22:32.778Z,-0.30
2023-02-05T12:23:41.500Z,0.36
2023-02-05T12:25:05.649Z,-0.16
2023-02-05T12:26:05.925Z,0.05
2023-02-05T12:27:16.510Z,-0.32
2023-02-05T12:28:38.200Z,-0.15
2023-02-05T12:29:54.483Z,0.55
2023-02-05T12:30:56.232Z,0.73
2023-02-05T12:33:17.269Z,1.22
2023-02-05T12:34:36.287Z,-2.81
2023-02-05T12:36:01.880Z,0.09
2023-02-05T12:37:17.016Z,0.78
2023-02-05T12:38:32.869Z,0.71
2023-02-05T12:39:46.903Z,1.25
2023-02-05T12:40:49.539Z,0.69
2023-02-05T12:42:02.155Z,0.84
2023-02-05T12:43:40.235Z,0.86
2023-02-05T12:44:45.817Z,0.90
2023-02-05T12:45:51.789Z,0.98
2023-02-05T12:47:29.000Z,0.69
2023-02-05T12:50:11.765Z,-1.07
2023-02-05T12:51:39.204Z,0.86
2023-02-05T12:52:44.135Z,0.51
2023-02-05T12:54:01.640Z,0.76
2023-02-05T12:55:05.699Z,1.19
2023-02-05T12:56:25.432Z,0.98
2023-02-05T12:57:46.913Z,0.42
2023-02-05T12:59:33.192Z,-2.74
2023-02-05T13:00:43.970Z,-0.20
2023-02-05T13:02:05.272Z,-0.75
2023-02-05T13:03:11.740Z,0.05
2023-02-05T13:04:25.268Z,0.72
2023-02-05T13:05:31.024Z,0.78
2023-02-05T13:06:39.486Z,0.69
2023-02-05T13:07:48.282Z,-0.64
2023-02-05T13:08:46.975Z,0.22
2023-02-05T13:09:53.349Z,0.07
2023-02-05T13:11:00.779Z,0.11
2023-02-05T13:12:09.517Z,-0.65
2023-02-05T13:13:17.386Z,-0.94
2023-02-05T13:14:30.661Z,-0.42
2023-02-05T13:15:36.073Z,-0.94
2023-02-05T13:17:02.388Z,-0.86
2023-02-05T13:18:22.925Z,-0.69
2023-02-05T13:19:30.152Z,-1.04
2023-02-05T13:21:16.451Z,-0.82
2023-02-05T13:22:50.233Z,-0.75
2023-02-05T13:24:09.114Z,-1.15
2023-02-05T13:25:43.596Z,-0.41
2023-02-05T13:27:04.047Z,-0.80
2023-02-05T13:28:40.750Z,-0.59
2023-02-05T13:29:53.215Z,-1.45
2023-02-05T13:30:55.786Z,-0.84
2023-02-05T13:32:04.283Z,-0.93
2023-02-05T13:33:12.698Z,-0.98
2023-02-05T13:34:15.901Z,-1.18
2023-02-05T13:35:12.811Z,-0.75
2023-02-05T13:36:33.667Z,-1.08
2023-02-05T13:38:14.672Z,-0.96
2023-02-05T13:39:34.503Z,-0.36
2023-02-05T13:41:04.440Z,-2.41
2023-02-05T13:42:23.447Z,-0.68
2023-02-05T13:43:44.947Z,-0.39
2023-02-05T13:45:02.216Z,-1.00
2023-02-05T13:46:24.688Z,-0.62
2023-02-05T13:47:25.431Z,-0.82
2023-02-05T13:48:33.927Z,-1.21